Acapulco Jet — IWUM — position and weather

sailwx.info

Track history (hours):
 
Tides and Currents Weather Stations Pressure Air Temp Water Temp Dewpoint Dewpoint Depression Visibility Wind Speed Wind Dir Waves Ship Positions

Acapulco Jet

Last reported at 2015-Apr-01 05:28 UTC. Time now 2015-Apr-01 10:39 UTC.
Position N 42°49' E 010°19'.

Length 35 m; draft 1.3 m.

Type: High speed craft. MMSI: 247050100.

Date/timePositionNaut miles runAvg speedWind from/ knotsBaromVisibWave heightAir tempDewpointWater temp
2015-Apr-01 05:28N 42°49' E 010°19'  
2015-Mar-29 13:13N 42°52' E 010°26'1 0.3
2015-Mar-29 11:33N 42°52' E 010°26'3 2.7
2015-Mar-29 10:33N 42°54' E 010°29'4 1.6
2015-Mar-29 08:05N 42°56' E 010°33'1323.2
2015-Mar-29 07:32N 42°49' E 010°19'12 5.7
2015-Mar-29 05:26N 42°56' E 010°33'7 0.5
2015-Mar-28 15:33N 42°52' E 010°25'5 4.6
2015-Mar-28 14:33N 42°54' E 010°31'6 2.8
2015-Mar-28 12:22N 42°51' E 010°23'  
Track history (hours):
 
Tides and Currents Weather Stations Pressure Air Temp Water Temp Dewpoint Dewpoint Depression Visibility Wind Speed Wind Dir Waves Ship Positions

Acapulco Jet

Last reported at 2015-Apr-01 05:28 UTC. Time now 2015-Apr-01 10:39 UTC.
Position N 42°49' E 010°19'.

Length 35 m; draft 1.3 m.

Type: High speed craft. MMSI: 247050100.

Date/timePositionNaut miles runAvg speedWind from/ knotsBaromVisibWave heightAir tempDewpointWater temp
2015-Apr-01 05:28N 42°49' E 010°19'  
2015-Mar-29 13:13N 42°52' E 010°26'1 0.3
2015-Mar-29 11:33N 42°52' E 010°26'3 2.7
2015-Mar-29 10:33N 42°54' E 010°29'4 1.6
2015-Mar-29 08:05N 42°56' E 010°33'1323.2
2015-Mar-29 07:32N 42°49' E 010°19'12 5.7
2015-Mar-29 05:26N 42°56' E 010°33'7 0.5
2015-Mar-28 15:33N 42°52' E 010°25'5 4.6
2015-Mar-28 14:33N 42°54' E 010°31'6 2.8
2015-Mar-28 12:22N 42°51' E 010°23'  

Dump ship's entire track history